Koyo — JD2279 — position and weather

sailwx.info

Track history (hours):
 
Tides and Currents Weather Stations Pressure Air Temp Water Temp Dewpoint Dewpoint Depression Visibility Wind Speed Wind Dir Waves Ship Positions

Koyo

Last reported at 2014-Sep-19 08:30 UTC. Time now 2014-Sep-19 21:59 UTC.
Position N 34°37' E 134°57'.

Length 80 m; draft 3.6 m.

Type: Cargo ship. MMSI: 431301812.

Date/timePositionNaut miles runAvg speedWind from/ knotsBaromVisibWave heightAir tempDewpointWater temp
2014-Sep-19 08:30N 34°37' E 134°57'1212.9
2014-Sep-19 07:33N 34°37' E 135°11'3 3.5
2014-Sep-19 06:33N 34°39' E 135°14'0 0.2
2014-Sep-19 05:32N 34°39' E 135°15'2 1.7
2014-Sep-19 04:34N 34°40' E 135°13'0 0.0
2014-Sep-19 03:34N 34°40' E 135°13'0 0.0
2014-Sep-19 02:34N 34°40' E 135°13'0 0.0
2014-Sep-19 01:34N 34°40' E 135°13'0 0.0
2014-Sep-19 00:34N 34°40' E 135°13'0 0.0
2014-Sep-18 23:34N 34°40' E 135°13'2 2.2
2014-Sep-18 22:33N 34°39' E 135°15'0 0.0
2014-Sep-18 21:33N 34°39' E 135°15'0 0.0
2014-Sep-18 20:33N 34°39' E 135°15'0 0.0
2014-Sep-18 19:33N 34°39' E 135°15'8 7.6
2014-Sep-18 18:33N 34°35' E 135°07'1111.1
2014-Sep-18 17:33N 34°35' E 134°54'11311.3
2014-Sep-18 07:33N 34°03' E 132°42'109 4.1
2014-Sep-17 05:22N 34°34' E 134°48'1214.4
2014-Sep-17 04:32N 34°37' E 135°02'1212.3
2014-Sep-17 03:33N 34°38' E 135°17'7 6.5
2014-Sep-17 02:31N 34°38' E 135°25'0 0.4
2014-Sep-17 01:33N 34°37' E 135°25'8 8.4
2014-Sep-17 00:33N 34°39' E 135°15'0 0.0
2014-Sep-16 23:33N 34°39' E 135°15'2 2.1
2014-Sep-16 22:33N 34°37' E 135°14'7 6.8
2014-Sep-16 21:33N 34°34' E 135°06'1010.5
2014-Sep-16 20:33N 34°34' E 134°53'2 0.0
2014-Sep-15 02:33N 34°36' E 134°54'1313.1
2014-Sep-15 01:33N 34°37' E 135°10'4 4.3
2014-Sep-15 00:33N 34°39' E 135°14'0 0.0
2014-Sep-14 23:33N 34°39' E 135°14'1 0.5
2014-Sep-14 22:12N 34°39' E 135°15'0 0.0
2014-Sep-14 21:24N 34°39' E 135°15'0 0.0
2014-Sep-14 20:24N 34°39' E 135°15'1 1.0
2014-Sep-14 19:33N 34°38' E 135°15'1111.1
2014-Sep-14 18:33N 34°28' E 135°09'1211.4
2014-Sep-14 17:32N 34°19' E 135°01'1111.4
2014-Sep-14 16:33N 34°07' E 134°60'19510.3
2014-Sep-13 21:33N 32°28' E 131°40'5 0.6
2014-Sep-13 12:33N 32°23' E 131°41'1312.8
2014-Sep-13 11:33N 32°10' E 131°36'1313.4
2014-Sep-13 10:33N 31°57' E 131°32'214 7.0
2014-Sep-12 04:14N 34°06' E 134°55'914.1
2014-Sep-12 03:33N 34°15' E 134°58'1312.8
2014-Sep-12 02:33N 34°27' E 135°04'1413.7
2014-Sep-12 01:33N 34°38' E 135°15'2 1.9
2014-Sep-12 00:32N 34°40' E 135°14'0 0.0
2014-Sep-11 23:33N 34°40' E 135°14'1 0.8
2014-Sep-11 22:33N 34°39' E 135°15'0 0.0
2014-Sep-11 21:33N 34°39' E 135°15'0 0.0
2014-Sep-11 20:33N 34°39' E 135°15'6 6.3
2014-Sep-11 19:33N 34°36' E 135°08'1414.3
2014-Sep-11 18:33N 34°34' E 134°51'1 0.0
2014-Sep-10 05:33N 34°34' E 134°50'10 9.7
2014-Sep-10 04:30N 34°37' E 135°01'1010.6
2014-Sep-10 03:33N 34°37' E 135°13'10 9.5
2014-Sep-10 02:33N 34°38' E 135°25'0 0.1
2014-Sep-10 01:33N 34°37' E 135°25'9 9.0
2014-Sep-10 00:33N 34°40' E 135°14'0 0.0
2014-Sep-09 23:33N 34°40' E 135°14'1 0.8
2014-Sep-09 22:33N 34°39' E 135°15'0 0.0
2014-Sep-09 21:33N 34°39' E 135°15'0 0.0
2014-Sep-09 20:33N 34°39' E 135°15'0 0.0
2014-Sep-09 19:33N 34°39' E 135°15'5 5.0
2014-Sep-09 18:33N 34°36' E 135°10'1413.5
2014-Sep-09 17:32N 34°35' E 134°53'  
Track history (hours):
 
Tides and Currents Weather Stations Pressure Air Temp Water Temp Dewpoint Dewpoint Depression Visibility Wind Speed Wind Dir Waves Ship Positions

Koyo

Last reported at 2014-Sep-19 08:30 UTC. Time now 2014-Sep-19 21:59 UTC.
Position N 34°37' E 134°57'.

Length 80 m; draft 3.6 m.

Type: Cargo ship. MMSI: 431301812.

Date/timePositionNaut miles runAvg speedWind from/ knotsBaromVisibWave heightAir tempDewpointWater temp
2014-Sep-19 08:30N 34°37' E 134°57'1212.9
2014-Sep-19 07:33N 34°37' E 135°11'3 3.5
2014-Sep-19 06:33N 34°39' E 135°14'0 0.2
2014-Sep-19 05:32N 34°39' E 135°15'2 1.7
2014-Sep-19 04:34N 34°40' E 135°13'0 0.0
2014-Sep-19 03:34N 34°40' E 135°13'0 0.0
2014-Sep-19 02:34N 34°40' E 135°13'0 0.0
2014-Sep-19 01:34N 34°40' E 135°13'0 0.0
2014-Sep-19 00:34N 34°40' E 135°13'0 0.0
2014-Sep-18 23:34N 34°40' E 135°13'2 2.2
2014-Sep-18 22:33N 34°39' E 135°15'0 0.0
2014-Sep-18 21:33N 34°39' E 135°15'0 0.0
2014-Sep-18 20:33N 34°39' E 135°15'0 0.0
2014-Sep-18 19:33N 34°39' E 135°15'8 7.6
2014-Sep-18 18:33N 34°35' E 135°07'1111.1
2014-Sep-18 17:33N 34°35' E 134°54'11311.3
2014-Sep-18 07:33N 34°03' E 132°42'109 4.1
2014-Sep-17 05:22N 34°34' E 134°48'1214.4
2014-Sep-17 04:32N 34°37' E 135°02'1212.3
2014-Sep-17 03:33N 34°38' E 135°17'7 6.5
2014-Sep-17 02:31N 34°38' E 135°25'0 0.4
2014-Sep-17 01:33N 34°37' E 135°25'8 8.4
2014-Sep-17 00:33N 34°39' E 135°15'0 0.0
2014-Sep-16 23:33N 34°39' E 135°15'2 2.1
2014-Sep-16 22:33N 34°37' E 135°14'7 6.8
2014-Sep-16 21:33N 34°34' E 135°06'1010.5
2014-Sep-16 20:33N 34°34' E 134°53'2 0.0
2014-Sep-15 02:33N 34°36' E 134°54'1313.1
2014-Sep-15 01:33N 34°37' E 135°10'4 4.3
2014-Sep-15 00:33N 34°39' E 135°14'0 0.0
2014-Sep-14 23:33N 34°39' E 135°14'1 0.5
2014-Sep-14 22:12N 34°39' E 135°15'0 0.0
2014-Sep-14 21:24N 34°39' E 135°15'0 0.0
2014-Sep-14 20:24N 34°39' E 135°15'1 1.0
2014-Sep-14 19:33N 34°38' E 135°15'1111.1
2014-Sep-14 18:33N 34°28' E 135°09'1211.4
2014-Sep-14 17:32N 34°19' E 135°01'1111.4
2014-Sep-14 16:33N 34°07' E 134°60'19510.3
2014-Sep-13 21:33N 32°28' E 131°40'5 0.6
2014-Sep-13 12:33N 32°23' E 131°41'1312.8
2014-Sep-13 11:33N 32°10' E 131°36'1313.4
2014-Sep-13 10:33N 31°57' E 131°32'214 7.0
2014-Sep-12 04:14N 34°06' E 134°55'914.1
2014-Sep-12 03:33N 34°15' E 134°58'1312.8
2014-Sep-12 02:33N 34°27' E 135°04'1413.7
2014-Sep-12 01:33N 34°38' E 135°15'2 1.9
2014-Sep-12 00:32N 34°40' E 135°14'0 0.0
2014-Sep-11 23:33N 34°40' E 135°14'1 0.8
2014-Sep-11 22:33N 34°39' E 135°15'0 0.0
2014-Sep-11 21:33N 34°39' E 135°15'0 0.0
2014-Sep-11 20:33N 34°39' E 135°15'6 6.3
2014-Sep-11 19:33N 34°36' E 135°08'1414.3
2014-Sep-11 18:33N 34°34' E 134°51'1 0.0
2014-Sep-10 05:33N 34°34' E 134°50'10 9.7
2014-Sep-10 04:30N 34°37' E 135°01'1010.6
2014-Sep-10 03:33N 34°37' E 135°13'10 9.5
2014-Sep-10 02:33N 34°38' E 135°25'0 0.1
2014-Sep-10 01:33N 34°37' E 135°25'9 9.0
2014-Sep-10 00:33N 34°40' E 135°14'0 0.0
2014-Sep-09 23:33N 34°40' E 135°14'1 0.8
2014-Sep-09 22:33N 34°39' E 135°15'0 0.0
2014-Sep-09 21:33N 34°39' E 135°15'0 0.0
2014-Sep-09 20:33N 34°39' E 135°15'0 0.0
2014-Sep-09 19:33N 34°39' E 135°15'5 5.0
2014-Sep-09 18:33N 34°36' E 135°10'1413.5
2014-Sep-09 17:32N 34°35' E 134°53'  

Dump ship's entire track history